Time;durP1;ratioP1;P1;durP2;ratioP2;P2;SDS_P1;SDS_P2;PMS_P1;PMS_P2;Temp;Humidity;BMP_temperature;BMP_pressure;BME280_temperature;BME280_humidity;BME280_pressure;Samples;Min_cycle;Max_cycle;Signal;HPM_P1;HPM_P2
2023/03/29 00:01:29;;;;;;;13.57;6.73;;;4.80;96.50;;;;;;5054396;28;20977;-50
2023/03/29 00:03:56;;;;;;;8.15;5.25;;;5.30;97.00;;;;;;5072075;28;20472;-50
2023/03/29 00:06:23;;;;;;;9.77;5.22;;;5.40;97.00;;;;;;5072222;28;20218;-51
2023/03/29 00:08:52;;;;;;;15.48;5.53;;;5.20;97.00;;;;;;5071920;28;20199;-51
2023/03/29 00:11:20;;;;;;;13.60;5.50;;;5.10;97.20;;;;;;5072099;28;20195;-50
2023/03/29 00:13:48;;;;;;;8.40;5.78;;;5.20;97.40;;;;;;5072173;28;20271;-50
2023/03/29 00:16:16;;;;;;;9.40;5.03;;;5.00;97.30;;;;;;5071877;28;20230;-50
2023/03/29 00:18:42;;;;;;;17.37;5.37;;;5.30;97.70;;;;;;5071560;28;20516;-50
2023/03/29 00:21:09;;;;;;;10.48;4.97;;;5.20;97.80;;;;;;5071988;28;20426;-51
2023/03/29 00:23:36;;;;;;;8.10;5.50;;;5.00;98.30;;;;;;5071747;28;20298;-51
2023/03/29 00:26:02;;;;;;;10.65;4.70;;;5.40;98.20;;;;;;5071364;28;20459;-50
2023/03/29 00:28:30;;;;;;;11.90;5.30;;;5.20;98.00;;;;;;5071258;28;20192;-50
2023/03/29 00:31:06;;;;;;;11.65;5.10;;;5.30;98.10;;;;;;5071730;28;20271;-51
2023/03/29 00:33:33;;;;;;;7.70;4.50;;;5.10;98.00;;;;;;5071703;28;20186;-51
2023/03/29 00:36:00;;;;;;;12.43;4.82;;;5.40;98.20;;;;;;5071701;28;20461;-50
2023/03/29 00:38:27;;;;;;;8.10;4.80;;;5.30;98.20;;;;;;5053402;28;20230;-51
2023/03/29 00:40:54;;;;;;;10.07;4.57;;;5.20;98.20;;;;;;5053673;28;20546;-51
2023/03/29 00:43:20;;;;;;;11.13;5.35;;;4.80;98.30;;;;;;5071530;28;20448;-51
2023/03/29 00:45:47;;;;;;;8.13;4.43;;;5.50;98.40;;;;;;5071611;28;20201;-51
2023/03/29 00:48:18;;;;;;;8.30;4.85;;;5.30;98.30;;;;;;5053513;28;20206;-50
2023/03/29 00:50:50;;;;;;;9.90;5.43;;;5.40;98.30;;;;;;5071925;28;20200;-50
2023/03/29 00:53:21;;;;;;;10.70;4.90;;;5.20;98.20;;;;;;5071851;28;20274;-50
2023/03/29 00:55:52;;;;;;;9.63;5.80;;;5.50;98.50;;;;;;5071483;28;20206;-51
2023/03/29 00:58:24;;;;;;;9.20;4.72;;;5.60;98.50;;;;;;5071471;28;20282;-50
2023/03/29 01:00:56;;;;;;;10.27;5.17;;;5.50;98.40;;;;;;5053488;28;20199;-50
2023/03/29 01:03:31;;;;;;;7.50;4.33;;;5.50;98.60;;;;;;5053438;28;20481;-51
2023/03/29 01:06:02;;;;;;;8.90;4.40;;;5.30;98.50;;;;;;5053461;28;20451;-50
2023/03/29 01:08:33;;;;;;;14.35;4.88;;;4.90;98.10;;;;;;5071177;28;20200;-50
2023/03/29 01:11:03;;;;;;;9.03;4.13;;;5.20;98.50;;;;;;5053595;28;20249;-50
2023/03/29 01:13:54;;;;;;;7.82;4.53;;;5.30;98.50;;;;;;5053469;28;20428;-51
2023/03/29 01:16:23;;;;;;;13.97;4.27;;;5.40;98.50;;;;;;5053439;28;20275;-51
2023/03/29 01:18:51;;;;;;;7.70;3.60;;;5.20;98.50;;;;;;5052891;28;20951;-51
2023/03/29 01:21:23;;;;;;;8.32;4.47;;;4.80;98.20;;;;;;5053175;28;20970;-51
2023/03/29 01:24:40;;;;;;;12.05;4.80;;;5.40;98.50;;;;;;5053346;28;20227;-50
2023/03/29 01:27:12;;;;;;;10.63;4.95;;;5.50;98.70;;;;;;5053008;28;20284;-51
2023/03/29 01:29:45;;;;;;;13.38;4.50;;;5.40;98.60;;;;;;5070874;28;20202;-51
2023/03/29 01:32:16;;;;;;;10.07;4.00;;;5.60;98.70;;;;;;5053356;28;20601;-51
2023/03/29 01:34:48;;;;;;;8.13;3.97;;;5.30;98.60;;;;;;5071113;28;20733;-51
2023/03/29 01:37:20;;;;;;;9.57;4.43;;;4.90;98.30;;;;;;5053991;28;20476;-50
2023/03/29 01:39:47;;;;;;;9.32;4.03;;;5.50;98.60;;;;;;5056306;28;20211;-51
2023/03/29 01:42:32;;;;;;;6.57;3.60;;;5.20;98.40;;;;;;5074603;28;20195;-50
2023/03/29 01:45:09;;;;;;;8.70;3.80;;;5.90;98.70;;;;;;5074571;28;20404;-51
2023/03/29 01:47:45;;;;;;;8.25;3.88;;;5.40;98.50;;;;;;5056761;28;20972;-51
2023/03/29 01:50:17;;;;;;;7.50;4.00;;;5.50;98.60;;;;;;5074175;28;20187;-51
2023/03/29 01:52:50;;;;;;;6.23;4.00;;;5.40;98.50;;;;;;5074481;28;20203;-51
2023/03/29 01:55:21;;;;;;;6.88;3.22;;;5.20;98.50;;;;;;5056477;28;20445;-51
2023/03/29 01:57:50;;;;;;;9.57;4.05;;;5.20;98.50;;;;;;5074327;28;20215;-51
2023/03/29 02:00:23;;;;;;;7.60;3.65;;;5.30;98.60;;;;;;5074005;28;20653;-51
2023/03/29 02:02:52;;;;;;;7.57;4.20;;;5.50;98.70;;;;;;5074275;28;20294;-50
2023/03/29 02:05:22;;;;;;;6.55;4.07;;;5.10;98.70;;;;;;5056159;28;20196;-51
2023/03/29 02:07:51;;;;;;;9.43;3.67;;;5.30;98.80;;;;;;5074271;28;20543;-50
2023/03/29 02:10:19;;;;;;;10.57;4.15;;;5.00;98.60;;;;;;5056057;28;20203;-51
2023/03/29 02:12:46;;;;;;;9.30;4.47;;;5.20;98.80;;;;;;5056207;28;20200;-51
2023/03/29 02:15:16;;;;;;;9.40;3.63;;;5.20;98.80;;;;;;5074094;28;20448;-51
2023/03/29 02:17:45;;;;;;;8.90;3.70;;;5.10;98.70;;;;;;5056084;28;20229;-50
2023/03/29 02:20:19;;;;;;;15.18;3.47;;;5.30;98.90;;;;;;5073659;28;20938;-51
2023/03/29 02:22:52;;;;;;;7.80;3.67;;;5.20;98.80;;;;;;5055781;28;20579;-50
2023/03/29 02:25:20;;;;;;;7.00;3.45;;;5.20;98.80;;;;;;5073801;28;20408;-51
2023/03/29 02:27:48;;;;;;;6.07;3.70;;;5.20;98.70;;;;;;5055666;28;20724;-50
2023/03/29 02:30:19;;;;;;;7.60;4.10;;;5.10;98.80;;;;;;5055461;28;20579;-51
2023/03/29 02:32:58;;;;;;;9.05;3.60;;;5.10;98.70;;;;;;5055667;28;20235;-51
2023/03/29 02:35:33;;;;;;;6.87;3.93;;;5.20;98.70;;;;;;5055751;28;20230;-52
2023/03/29 02:38:03;;;;;;;7.05;3.70;;;5.30;98.80;;;;;;5055535;28;20408;-52
2023/03/29 02:40:32;;;;;;;8.25;4.25;;;5.30;98.60;;;;;;5055498;28;20680;-51
2023/03/29 02:43:01;;;;;;;12.90;3.80;;;4.80;98.50;;;;;;5055458;28;20315;-51
2023/03/29 02:45:28;;;;;;;12.48;4.28;;;5.20;98.70;;;;;;5055568;28;20645;-51
2023/03/29 02:48:03;;;;;;;16.92;5.53;;;5.40;98.70;;;;;;5055209;28;20223;-51
2023/03/29 02:50:36;;;;;;;10.75;4.63;;;4.70;98.50;;;;;;5073148;28;20205;-51
2023/03/29 02:53:09;;;;;;;7.90;4.10;;;5.20;98.70;;;;;;5055428;28;20228;-52
2023/03/29 02:55:38;;;;;;;8.05;5.63;;;4.60;98.50;;;;;;5055671;28;20569;-51
2023/03/29 02:58:07;;;;;;;8.20;4.13;;;4.50;98.40;;;;;;5073354;28;20207;-50
2023/03/29 03:00:37;;;;;;;10.00;4.70;;;5.20;98.80;;;;;;5055412;28;20199;-50
2023/03/29 03:03:07;;;;;;;9.15;5.18;;;5.30;98.80;;;;;;5057812;28;20485;-51
2023/03/29 03:05:34;;;;;;;8.95;5.43;;;5.00;98.80;;;;;;5057994;28;20217;-52
2023/03/29 03:08:01;;;;;;;11.50;5.45;;;5.00;98.90;;;;;;5075046;28;20199;-50
2023/03/29 03:10:28;;;;;;;13.43;5.20;;;5.00;98.90;;;;;;5057877;28;20294;-51
2023/03/29 03:12:57;;;;;;;8.50;5.13;;;4.80;98.60;;;;;;5058307;28;20715;-50
2023/03/29 03:15:25;;;;;;;11.75;5.20;;;5.00;99.00;;;;;;5057241;28;20230;-51
2023/03/29 03:17:51;;;;;;;13.32;5.95;;;4.80;99.00;;;;;;5055279;28;20222;-52
2023/03/29 03:20:21;;;;;;;12.70;6.35;;;5.00;99.10;;;;;;5072715;28;20763;-52
2023/03/29 03:22:48;;;;;;;10.52;6.00;;;4.40;98.90;;;;;;5055167;28;20206;-52
2023/03/29 03:25:18;;;;;;;12.80;6.57;;;5.00;99.00;;;;;;5055008;28;20231;-51
2023/03/29 03:27:45;;;;;;;9.20;6.18;;;4.20;98.90;;;;;;5072588;28;20238;-52
2023/03/29 03:30:12;;;;;;;12.98;6.75;;;4.80;99.40;;;;;;5054367;28;20207;-52
2023/03/29 03:32:59;;;;;;;20.25;7.13;;;4.70;99.30;;;;;;5031461;28;20595;-50
2023/03/29 03:35:46;;;;;;;9.20;6.88;;;4.80;99.50;;;;;;5073080;28;20206;-50
2023/03/29 03:38:15;;;;;;;11.30;6.35;;;4.60;99.50;;;;;;5054333;28;20282;-49
2023/03/29 03:40:43;;;;;;;12.95;6.90;;;4.70;99.30;;;;;;5054509;28;20227;-51
2023/03/29 03:43:10;;;;;;;13.18;6.88;;;4.60;99.50;;;;;;5054252;28;20656;-51
2023/03/29 03:45:38;;;;;;;9.18;6.32;;;4.70;99.70;;;;;;5054474;28;20206;-50
2023/03/29 03:48:12;;;;;;;12.55;7.30;;;4.30;99.60;;;;;;5053844;28;20213;-51
2023/03/29 03:51:02;;;;;;;13.50;6.70;;;4.60;99.80;;;;;;5054150;28;20286;-49
2023/03/29 03:53:32;;;;;;;9.20;6.20;;;4.60;99.90;;;;;;5072175;28;20199;-51
2023/03/29 03:56:19;;;;;;;7.40;5.50;;;4.70;99.90;;;;;;5030864;28;20699;-51
2023/03/29 03:59:02;;;;;;;10.18;6.30;;;4.10;99.70;;;;;;5054048;28;20683;-51
2023/03/29 04:01:34;;;;;;;10.15;5.68;;;4.60;99.90;;;;;;5053960;28;20220;-51
2023/03/29 04:04:11;;;;;;;9.57;5.00;;;4.70;99.90;;;;;;5054355;28;20601;-51
2023/03/29 04:06:41;;;;;;;13.93;6.38;;;4.80;99.70;;;;;;5054290;28;20250;-51
2023/03/29 04:09:36;;;;;;;11.73;5.85;;;4.60;99.80;;;;;;4999891;28;20702;-52
2023/03/29 04:12:32;;;;;;;10.45;5.35;;;4.80;99.90;;;;;;5017316;28;20217;-50
2023/03/29 04:15:00;;;;;;;12.00;5.80;;;4.60;99.80;;;;;;5053905;28;20199;-51
2023/03/29 04:17:27;;;;;;;14.10;6.97;;;4.60;99.90;;;;;;5053658;28;20220;-51
2023/03/29 04:20:20;;;;;;;7.70;5.05;;;4.60;99.90;;;;;;5053821;28;20214;-52
2023/03/29 04:22:48;;;;;;;11.10;5.80;;;4.90;99.90;;;;;;5053735;28;20203;-51
2023/03/29 04:25:16;;;;;;;10.80;5.60;;;4.70;99.80;;;;;;5053803;28;20278;-51
2023/03/29 04:27:49;;;;;;;11.43;4.57;;;4.70;99.70;;;;;;5072554;28;20230;-51
2023/03/29 04:30:36;;;;;;;10.18;4.97;;;4.60;99.80;;;;;;5071294;28;20207;-51
2023/03/29 04:33:14;;;;;;;7.63;4.80;;;4.70;99.80;;;;;;5053721;28;20202;-51
2023/03/29 04:35:43;;;;;;;15.25;4.70;;;4.70;99.70;;;;;;5053619;28;20734;-51
2023/03/29 04:38:15;;;;;;;12.13;4.97;;;4.80;99.70;;;;;;5053292;28;20203;-51
2023/03/29 04:40:43;;;;;;;13.02;5.15;;;4.90;99.80;;;;;;5053836;28;20203;-51
2023/03/29 04:43:29;;;;;;;8.13;4.55;;;4.90;99.90;;;;;;5071887;28;20308;-50
2023/03/29 04:46:07;;;;;;;14.68;4.53;;;4.50;99.50;;;;;;5053589;28;20722;-50
2023/03/29 04:49:00;;;;;;;7.00;4.63;;;5.00;99.60;;;;;;5065166;28;20242;-52
2023/03/29 04:51:48;;;;;;;9.55;5.93;;;4.70;99.40;;;;;;5053979;28;20203;-52
2023/03/29 04:54:21;;;;;;;14.85;7.55;;;4.10;99.10;;;;;;5053804;28;20725;-50
2023/03/29 04:57:08;;;;;;;12.40;6.18;;;4.70;99.40;;;;;;5071968;28;20226;-50
2023/03/29 04:59:43;;;;;;;11.57;5.60;;;4.70;99.20;;;;;;5052951;28;20256;-51
2023/03/29 05:02:21;;;;;;;12.80;8.32;;;4.30;98.90;;;;;;5053545;28;20230;-51
2023/03/29 05:04:50;;;;;;;9.25;6.72;;;4.80;99.40;;;;;;5053270;28;20314;-51
2023/03/29 05:07:18;;;;;;;15.27;8.27;;;4.70;99.40;;;;;;5053743;28;20219;-50
2023/03/29 05:09:47;;;;;;;15.48;7.10;;;4.70;99.40;;;;;;5053004;28;20214;-52
2023/03/29 05:12:14;;;;;;;13.77;6.30;;;4.90;99.50;;;;;;5072093;28;20270;-52
2023/03/29 05:14:50;;;;;;;13.55;6.72;;;4.80;99.40;;;;;;5057059;28;20278;-51
2023/03/29 05:17:17;;;;;;;10.93;5.13;;;4.80;99.40;;;;;;5057133;28;20219;-51
2023/03/29 05:19:45;;;;;;;10.50;5.72;;;4.80;99.40;;;;;;5056730;28;20231;-50
2023/03/29 05:22:14;;;;;;;9.93;5.65;;;4.80;99.40;;;;;;5057320;28;20223;-50
2023/03/29 05:24:40;;;;;;;10.02;5.93;;;4.60;99.30;;;;;;5056633;28;20219;-51
2023/03/29 05:27:15;;;;;;;9.10;4.70;;;5.00;99.50;;;;;;5056503;28;20666;-52
2023/03/29 05:29:45;;;;;;;7.88;4.68;;;4.30;99.00;;;;;;5056660;28;20206;-52
2023/03/29 05:32:36;;;;;;;9.38;4.50;;;5.10;99.80;;;;;;5045421;28;20211;-52
2023/03/29 05:35:03;;;;;;;12.48;4.85;;;5.00;99.30;;;;;;5056867;28;20596;-51
2023/03/29 05:37:33;;;;;;;8.68;5.05;;;4.90;99.20;;;;;;5056531;28;20227;-51
2023/03/29 05:40:07;;;;;;;9.88;5.25;;;5.00;99.10;;;;;;5074846;28;20607;-51
2023/03/29 05:42:47;;;;;;;12.30;5.50;;;5.20;99.30;;;;;;5056888;28;20221;-50
2023/03/29 05:45:15;;;;;;;8.55;4.65;;;5.10;99.10;;;;;;5056359;28;20610;-52
2023/03/29 05:47:42;;;;;;;13.85;5.05;;;5.00;98.90;;;;;;5073711;28;20216;-52
2023/03/29 05:50:10;;;;;;;11.35;5.20;;;5.20;98.90;;;;;;5055977;28;20213;-51
2023/03/29 05:52:37;;;;;;;15.48;5.40;;;5.20;98.80;;;;;;5056394;28;20203;-50
2023/03/29 05:55:05;;;;;;;12.73;5.78;;;5.20;98.70;;;;;;5056900;28;20225;-51
2023/03/29 05:57:31;;;;;;;9.45;4.85;;;5.10;98.60;;;;;;5074096;28;20234;-51
2023/03/29 05:59:59;;;;;;;15.25;5.35;;;5.50;98.80;;;;;;5073882;28;20195;-50
2023/03/29 06:02:27;;;;;;;17.25;5.40;;;5.50;98.70;;;;;;5055850;28;20356;-52
2023/03/29 06:04:54;;;;;;;11.68;5.00;;;5.60;98.40;;;;;;5055961;28;20223;-51
2023/03/29 06:07:23;;;;;;;9.93;4.50;;;5.40;98.10;;;;;;5074149;28;20227;-50
2023/03/29 06:10:22;;;;;;;11.27;4.75;;;5.50;98.30;;;;;;5072896;28;20505;-51
2023/03/29 06:12:54;;;;;;;14.30;4.88;;;5.40;98.00;;;;;;5055869;28;20265;-51
2023/03/29 06:15:24;;;;;;;9.48;4.78;;;5.80;98.10;;;;;;5055416;28;20222;-52
2023/03/29 06:17:57;;;;;;;10.18;4.93;;;5.80;98.00;;;;;;5055555;28;20663;-51
2023/03/29 06:20:24;;;;;;;14.10;6.32;;;5.70;97.80;;;;;;5073231;28;20193;-51
2023/03/29 06:22:56;;;;;;;15.32;5.47;;;6.00;97.80;;;;;;5055625;28;20200;-51
2023/03/29 06:25:23;;;;;;;9.10;4.83;;;5.60;97.60;;;;;;5055656;28;20223;-51
2023/03/29 06:27:51;;;;;;;10.20;6.05;;;5.80;97.60;;;;;;5055394;28;20474;-51
2023/03/29 06:30:19;;;;;;;10.80;5.23;;;5.90;97.60;;;;;;5054919;28;20200;-52
2023/03/29 06:32:51;;;;;;;12.30;5.33;;;5.90;97.50;;;;;;5055107;28;20418;-51
2023/03/29 06:35:47;;;;;;;16.53;5.17;;;5.90;97.30;;;;;;5054670;28;20761;-51
2023/03/29 06:38:18;;;;;;;9.73;4.90;;;5.90;97.20;;;;;;5054779;28;20999;-51
2023/03/29 06:41:09;;;;;;;6.80;4.93;;;6.10;97.10;;;;;;5044260;28;20417;-52
2023/03/29 06:43:53;;;;;;;8.60;5.30;;;6.30;97.10;;;;;;5054934;28;20448;-51
2023/03/29 06:46:23;;;;;;;12.70;5.50;;;6.50;97.10;;;;;;5054920;28;20429;-51
2023/03/29 06:48:56;;;;;;;9.83;5.20;;;5.70;96.60;;;;;;5054348;28;20734;-51
2023/03/29 06:51:28;;;;;;;10.30;6.23;;;6.60;96.50;;;;;;5054709;28;20514;-51
2023/03/29 06:53:55;;;;;;;9.53;5.83;;;6.60;96.50;;;;;;5055091;28;20965;-52
2023/03/29 06:56:22;;;;;;;16.83;5.57;;;6.50;96.30;;;;;;5054795;28;21011;-51
2023/03/29 06:58:58;;;;;;;12.57;5.40;;;6.70;96.30;;;;;;5072759;28;20398;-50
2023/03/29 07:01:36;;;;;;;9.00;5.70;;;6.50;96.10;;;;;;5055023;28;20436;-50
2023/03/29 07:04:11;;;;;;;8.73;5.30;;;6.80;96.10;;;;;;5054864;28;20420;-50
2023/03/29 07:07:04;;;;;;;10.30;4.57;;;6.90;96.10;;;;;;5072519;28;20442;-51
2023/03/29 07:09:35;;;;;;;7.70;5.33;;;6.80;96.00;;;;;;5054226;28;20425;-51
2023/03/29 07:12:22;;;;;;;10.57;5.40;;;6.90;95.90;;;;;;5072417;28;20528;-51
2023/03/29 07:14:49;;;;;;;9.83;5.50;;;6.90;95.80;;;;;;5054227;28;20453;-51
2023/03/29 07:17:17;;;;;;;11.63;6.60;;;7.00;95.70;;;;;;5053965;28;20700;-51
2023/03/29 07:19:45;;;;;;;16.10;5.90;;;7.30;95.90;;;;;;5054155;28;20426;-51
2023/03/29 07:22:31;;;;;;;12.97;6.67;;;7.00;95.50;;;;;;5072709;28;21049;-51
2023/03/29 07:25:00;;;;;;;12.53;6.30;;;6.90;95.10;;;;;;5053571;28;20438;-51
2023/03/29 07:27:27;;;;;;;21.20;7.93;;;7.00;95.40;;;;;;5053377;28;20480;-50
2023/03/29 07:29:55;;;;;;;14.10;6.90;;;7.10;95.20;;;;;;5071643;28;20550;-50
2023/03/29 07:32:22;;;;;;;14.40;6.80;;;7.10;95.10;;;;;;5071953;28;20833;-51
2023/03/29 07:35:05;;;;;;;11.60;7.70;;;7.20;95.10;;;;;;5053304;28;20430;-51
2023/03/29 07:37:36;;;;;;;11.93;6.63;;;7.30;95.00;;;;;;5053748;28;20890;-51
2023/03/29 07:40:14;;;;;;;10.80;5.50;;;7.50;95.00;;;;;;5053463;28;20452;-50
2023/03/29 07:42:57;;;;;;;12.93;5.40;;;7.20;94.70;;;;;;5072200;28;20861;-50
2023/03/29 07:45:27;;;;;;;10.90;5.60;;;7.40;94.80;;;;;;5072183;28;20856;-49
2023/03/29 07:48:05;;;;;;;12.50;6.10;;;7.50;94.90;;;;;;5053298;28;20436;-49
2023/03/29 07:50:48;;;;;;;11.30;5.03;;;7.70;94.60;;;;;;5054072;28;20452;-50
2023/03/29 07:53:16;;;;;;;9.17;4.67;;;7.60;94.50;;;;;;5053908;28;20526;-50
2023/03/29 07:55:45;;;;;;;10.43;5.83;;;7.10;94.20;;;;;;5053844;28;20422;-50
2023/03/29 07:58:38;;;;;;;9.03;5.07;;;7.00;94.10;;;;;;5068367;28;20527;-51
2023/03/29 08:01:07;;;;;;;9.40;4.80;;;7.50;94.30;;;;;;5071823;28;20406;-51
2023/03/29 08:04:00;;;;;;;6.50;4.30;;;7.70;94.30;;;;;;5054048;28;20448;-51
2023/03/29 08:06:48;;;;;;;5.93;4.70;;;7.60;93.80;;;;;;5071685;28;20458;-52
2023/03/29 08:09:16;;;;;;;7.93;4.47;;;7.70;94.00;;;;;;5053391;28;20514;-52
2023/03/29 08:11:44;;;;;;;10.23;4.87;;;7.80;93.80;;;;;;5053677;28;20503;-52
2023/03/29 08:14:20;;;;;;;5.90;4.40;;;7.70;93.90;;;;;;5053688;28;20998;-51
2023/03/29 08:17:05;;;;;;;9.83;4.57;;;7.80;93.80;;;;;;5071502;28;20509;-51
2023/03/29 08:19:39;;;;;;;11.50;5.53;;;7.90;93.90;;;;;;5052755;28;20447;-51
2023/03/29 08:22:09;;;;;;;12.33;5.10;;;7.30;93.70;;;;;;5053669;28;20459;-52
2023/03/29 08:24:56;;;;;;;10.97;5.10;;;7.40;93.80;;;;;;5071163;28;20528;-50
2023/03/29 08:27:27;;;;;;;9.67;4.27;;;8.00;94.00;;;;;;5053727;28;20804;-52
2023/03/29 08:29:54;;;;;;;17.33;5.80;;;7.70;94.30;;;;;;5052780;28;20946;-51
2023/03/29 08:32:21;;;;;;;15.33;5.57;;;7.70;93.90;;;;;;5071990;28;20428;-51
2023/03/29 08:34:48;;;;;;;8.20;4.40;;;8.00;94.30;;;;;;5053495;28;20427;-51
2023/03/29 08:37:23;;;;;;;8.53;4.27;;;7.90;94.40;;;;;;5053688;28;20447;-51
2023/03/29 08:39:50;;;;;;;7.60;4.30;;;7.80;94.30;;;;;;5053625;28;20811;-50
2023/03/29 08:43:02;;;;;;;8.30;4.50;;;7.80;94.30;;;;;;5071160;28;20442;-51
2023/03/29 08:45:58;;;;;;;13.07;5.53;;;8.00;94.30;;;;;;5053001;28;20482;-51
2023/03/29 08:48:28;;;;;;;11.80;4.00;;;8.10;94.50;;;;;;5056839;28;20422;-51
2023/03/29 08:51:01;;;;;;;10.27;4.70;;;8.20;94.50;;;;;;5056519;28;20942;-51
2023/03/29 08:53:33;;;;;;;10.77;4.80;;;7.90;94.40;;;;;;5057141;28;20203;-51
2023/03/29 08:56:32;;;;;;;12.90;4.80;;;8.00;94.40;;;;;;5061491;28;20788;-52
2023/03/29 08:59:24;;;;;;;9.27;4.37;;;7.50;94.20;;;;;;5056061;28;20448;-51
2023/03/29 09:01:55;;;;;;;5.83;4.07;;;8.50;94.50;;;;;;5056398;28;20428;-50
2023/03/29 09:04:27;;;;;;;8.47;4.40;;;8.00;94.40;;;;;;5056327;28;20423;-51
2023/03/29 09:07:29;;;;;;;6.10;4.60;;;8.30;94.80;;;;;;5062003;28;20443;-51
2023/03/29 09:09:57;;;;;;;12.83;4.20;;;8.30;94.70;;;;;;5056379;28;20451;-50
2023/03/29 09:12:42;;;;;;;9.90;4.63;;;8.40;94.70;;;;;;5057360;28;20451;-50
2023/03/29 09:15:15;;;;;;;13.20;6.37;;;8.80;94.90;;;;;;5057499;28;20822;-50
2023/03/29 09:17:55;;;;;;;7.20;3.93;;;8.70;94.90;;;;;;5056744;28;20452;-51
2023/03/29 09:20:33;;;;;;;8.47;4.00;;;9.10;95.00;;;;;;5056237;28;20431;-51
2023/03/29 09:23:15;;;;;;;11.00;4.17;;;9.30;94.70;;;;;;5074666;28;20408;-50
2023/03/29 09:26:08;;;;;;;7.10;4.27;;;9.20;94.90;;;;;;5074253;28;20463;-51
2023/03/29 09:29:01;;;;;;;6.23;4.13;;;9.40;94.80;;;;;;5056558;28;20852;-53
2023/03/29 09:31:32;;;;;;;9.77;3.93;;;9.60;94.80;;;;;;5074618;28;20404;-52
2023/03/29 09:34:03;;;;;;;7.73;4.70;;;9.80;94.70;;;;;;5074536;28;20429;-52
2023/03/29 09:36:51;;;;;;;6.10;3.70;;;9.10;94.40;;;;;;5056501;28;20540;-51
2023/03/29 09:39:19;;;;;;;11.30;5.13;;;10.30;94.40;;;;;;5055776;28;20511;-51
2023/03/29 09:41:56;;;;;;;7.70;4.23;;;9.90;94.70;;;;;;5056379;28;20456;-51
2023/03/29 09:44:27;;;;;;;6.10;3.57;;;10.30;94.30;;;;;;5056665;28;20460;-52
2023/03/29 09:46:56;;;;;;;6.80;4.23;;;9.70;94.40;;;;;;5056574;28;20481;-52
2023/03/29 09:49:31;;;;;;;6.10;3.80;;;10.00;93.80;;;;;;5056520;28;20865;-51
2023/03/29 09:52:03;;;;;;;6.63;4.27;;;10.40;94.00;;;;;;5057265;28;20432;-51
2023/03/29 09:54:31;;;;;;;11.33;5.20;;;10.60;94.40;;;;;;5056282;28;20443;-51
2023/03/29 09:57:19;;;;;;;7.87;3.70;;;10.20;93.70;;;;;;5073972;28;20436;-51
2023/03/29 09:59:49;;;;;;;8.80;4.50;;;10.70;93.90;;;;;;5055721;28;20424;-52
2023/03/29 10:02:19;;;;;;;9.18;4.15;;;9.80;93.90;;;;;;5055607;28;20494;-51
2023/03/29 10:04:54;;;;;;;4.20;3.43;;;10.40;93.70;;;;;;5056254;28;20218;-53
2023/03/29 10:07:21;;;;;;;9.17;4.13;;;10.40;93.40;;;;;;5055963;28;20463;-51
2023/03/29 10:09:55;;;;;;;9.87;4.00;;;10.60;93.30;;;;;;5055594;28;20438;-52
2023/03/29 10:12:23;;;;;;;6.80;3.90;;;10.40;93.50;;;;;;5055641;28;20882;-52
2023/03/29 10:14:53;;;;;;;9.07;3.70;;;10.40;93.50;;;;;;5074282;28;20514;-51
2023/03/29 10:17:21;;;;;;;7.50;3.90;;;10.60;93.80;;;;;;5073634;28;20446;-51
2023/03/29 10:19:50;;;;;;;11.93;4.40;;;10.40;93.40;;;;;;5073264;28;20430;-51
2023/03/29 10:22:19;;;;;;;22.13;4.13;;;9.90;93.70;;;;;;5055518;28;20429;-51
2023/03/29 10:24:50;;;;;;;9.70;3.87;;;10.50;93.50;;;;;;5073508;28;20465;-51
2023/03/29 10:27:21;;;;;;;11.73;4.17;;;10.30;93.20;;;;;;5055370;28;20491;-48
2023/03/29 10:29:50;;;;;;;18.20;4.03;;;10.80;93.70;;;;;;5073092;28;20438;-48
2023/03/29 10:32:25;;;;;;;7.30;4.30;;;10.40;93.60;;;;;;5073252;28;20416;-50
2023/03/29 10:34:53;;;;;;;8.17;4.53;;;10.30;93.50;;;;;;5073294;28;20436;-49
2023/03/29 10:37:22;;;;;;;8.57;4.50;;;9.90;94.00;;;;;;5073931;28;20944;-50
2023/03/29 10:39:49;;;;;;;6.10;4.07;;;10.40;93.60;;;;;;5073030;28;20444;-50
2023/03/29 10:42:18;;;;;;;9.80;4.60;;;10.30;93.70;;;;;;5072979;28;20932;-49
2023/03/29 10:44:54;;;;;;;9.93;5.20;;;10.10;93.60;;;;;;5072900;28;20409;-49
2023/03/29 10:47:21;;;;;;;10.03;5.10;;;10.90;93.90;;;;;;5072469;28;20455;-51
2023/03/29 10:49:51;;;;;;;6.07;4.60;;;10.70;93.80;;;;;;5054240;28;20419;-48
2023/03/29 10:52:18;;;;;;;6.17;4.13;;;10.90;93.70;;;;;;5072672;28;20405;-48
2023/03/29 10:54:46;;;;;;;6.80;4.73;;;10.80;93.70;;;;;;5072693;28;20407;-48
2023/03/29 10:57:15;;;;;;;6.43;4.17;;;10.90;93.80;;;;;;5054811;28;20556;-49
2023/03/29 10:59:52;;;;;;;13.03;4.57;;;10.80;93.60;;;;;;5072314;28;20426;-49
2023/03/29 11:02:54;;;;;;;6.87;4.03;;;11.10;93.60;;;;;;5072710;28;20496;-49
2023/03/29 11:05:32;;;;;;;7.80;4.40;;;11.70;93.50;;;;;;5072764;28;20416;-48
2023/03/29 11:08:20;;;;;;;6.30;4.27;;;11.20;93.00;;;;;;5072559;28;20887;-49
2023/03/29 11:10:56;;;;;;;4.23;3.40;;;11.60;92.80;;;;;;5072397;28;20625;-48
2023/03/29 11:13:31;;;;;;;5.07;3.57;;;11.50;92.60;;;;;;5072601;28;20851;-48
2023/03/29 11:16:09;;;;;;;8.13;4.30;;;11.90;92.60;;;;;;5072305;28;20417;-48
2023/03/29 11:18:53;;;;;;;9.17;4.37;;;11.90;92.60;;;;;;5072248;28;20439;-48
2023/03/29 11:21:27;;;;;;;6.10;4.37;;;11.60;92.20;;;;;;5072402;28;20424;-50
2023/03/29 11:24:02;;;;;;;8.17;4.13;;;11.80;92.00;;;;;;5072197;28;20510;-51
2023/03/29 11:26:38;;;;;;;5.07;3.90;;;12.30;92.00;;;;;;5054145;28;20498;-50
2023/03/29 11:29:12;;;;;;;6.87;3.60;;;11.80;91.50;;;;;;5071823;28;20405;-49
2023/03/29 11:31:48;;;;;;;6.53;3.60;;;11.90;91.70;;;;;;5072567;28;20770;-48
2023/03/29 11:34:24;;;;;;;9.03;5.30;;;11.80;91.60;;;;;;5072006;28;20406;-50
2023/03/29 11:36:57;;;;;;;5.93;4.17;;;12.10;91.50;;;;;;5053977;28;20444;-49
2023/03/29 11:39:35;;;;;;;7.67;4.03;;;12.20;91.50;;;;;;5071833;28;20409;-48
2023/03/29 11:42:09;;;;;;;9.07;4.10;;;12.70;91.50;;;;;;5072039;28;20414;-49
2023/03/29 11:44:38;;;;;;;6.90;4.40;;;12.40;90.70;;;;;;5072084;28;20402;-48
2023/03/29 11:47:12;;;;;;;6.50;3.70;;;12.70;91.00;;;;;;5071568;28;20458;-49
2023/03/29 11:49:45;;;;;;;9.93;4.10;;;12.70;90.50;;;;;;5071379;28;20918;-49
2023/03/29 11:52:15;;;;;;;6.80;3.70;;;12.80;90.70;;;;;;5054040;28;20435;-49
2023/03/29 11:54:45;;;;;;;8.57;4.70;;;12.80;90.50;;;;;;5072105;28;20900;-48
2023/03/29 11:57:20;;;;;;;5.77;5.07;;;12.80;90.40;;;;;;5071625;28;20473;-49
2023/03/29 11:59:51;;;;;;;8.50;4.93;;;12.80;90.00;;;;;;5071587;28;20416;-50
2023/03/29 12:02:26;;;;;;;8.53;4.17;;;13.20;89.90;;;;;;5072258;28;20440;-50
2023/03/29 12:04:57;;;;;;;4.87;4.20;;;13.30;90.00;;;;;;5071722;28;20532;-50
2023/03/29 12:07:29;;;;;;;6.27;4.47;;;13.40;89.80;;;;;;5071775;28;20484;-50
2023/03/29 12:10:00;;;;;;;9.57;4.20;;;12.80;89.20;;;;;;5071095;28;20436;-50
2023/03/29 12:12:32;;;;;;;5.67;3.73;;;12.80;89.40;;;;;;5071757;28;20443;-49
2023/03/29 12:15:05;;;;;;;6.27;4.27;;;13.00;89.50;;;;;;5071503;28;20432;-49
2023/03/29 12:17:37;;;;;;;8.07;4.33;;;13.50;89.90;;;;;;5053314;28;20476;-51
2023/03/29 12:20:15;;;;;;;4.67;3.90;;;13.20;89.30;;;;;;5071831;28;20430;-48
2023/03/29 12:22:47;;;;;;;10.33;5.53;;;13.20;88.20;;;;;;5053248;28;20498;-50
2023/03/29 12:25:18;;;;;;;5.10;4.27;;;13.50;88.40;;;;;;5071594;28;20432;-49
2023/03/29 12:27:59;;;;;;;13.37;4.73;;;13.40;88.50;;;;;;5071246;28;20846;-49
2023/03/29 12:30:38;;;;;;;7.83;4.37;;;13.50;88.50;;;;;;5071124;28;20404;-49
2023/03/29 12:33:36;;;;;;;5.23;4.23;;;13.30;87.60;;;;;;5071342;28;20855;-50
2023/03/29 12:36:54;;;;;;;3.90;3.50;;;13.50;86.90;;;;;;5071353;28;20480;-50
2023/03/29 12:39:39;;;;;;;4.33;3.93;;;13.70;87.00;;;;;;5071522;28;20428;-50
2023/03/29 12:42:25;;;;;;;7.10;4.07;;;14.20;86.90;;;;;;5071242;28;20424;-49
2023/03/29 12:45:18;;;;;;;10.13;5.27;;;14.10;86.20;;;;;;5071305;28;20776;-49
2023/03/29 12:47:46;;;;;;;8.90;5.33;;;13.80;85.40;;;;;;5070443;28;20459;-48
2023/03/29 12:50:24;;;;;;;9.33;4.50;;;13.40;85.10;;;;;;5070671;28;20755;-49
2023/03/29 12:52:52;;;;;;;5.70;4.03;;;13.80;85.30;;;;;;5070727;28;20445;-48
2023/03/29 12:55:24;;;;;;;6.57;4.30;;;13.90;85.60;;;;;;5071152;28;20435;-49
2023/03/29 12:58:01;;;;;;;6.40;3.90;;;13.90;85.00;;;;;;5071104;28;20823;-49
2023/03/29 13:00:34;;;;;;;7.13;4.57;;;14.20;84.20;;;;;;5070722;28;20499;-49
2023/03/29 13:03:03;;;;;;;7.13;5.07;;;14.40;84.40;;;;;;5071126;28;20436;-49
2023/03/29 13:05:33;;;;;;;10.53;5.73;;;14.60;84.30;;;;;;5070894;28;20524;-50
2023/03/29 13:08:21;;;;;;;6.33;4.10;;;14.40;83.70;;;;;;5070673;28;20451;-49
2023/03/29 13:10:53;;;;;;;6.23;4.10;;;14.40;83.40;;;;;;5071186;28;20785;-50
2023/03/29 13:13:24;;;;;;;8.38;5.28;;;14.40;83.20;;;;;;5069281;28;20899;-50
2023/03/29 13:15:51;;;;;;;5.83;4.70;;;14.60;81.10;;;;;;5070897;28;20191;-49
2023/03/29 13:18:32;;;;;;;11.93;4.70;;;14.40;81.10;;;;;;5070238;28;20415;-50
2023/03/29 13:21:10;;;;;;;6.63;4.83;;;14.30;81.30;;;;;;5070279;28;20442;-49
2023/03/29 13:23:48;;;;;;;7.20;4.60;;;14.30;81.00;;;;;;5069677;28;20437;-50
2023/03/29 13:26:32;;;;;;;9.00;4.87;;;14.40;80.70;;;;;;5070736;28;20594;-49